sensor_id;sensor_type;location;lat;lon;timestamp;temperature;humidity
25923;DHT22;13725;51.170;4.442;2024-02-26T00:00:40;6.90;99.90
25923;DHT22;13725;51.170;4.442;2024-02-26T00:03:06;7.10;99.90
25923;DHT22;13725;51.170;4.442;2024-02-26T00:05:32;7.00;99.90
25923;DHT22;13725;51.170;4.442;2024-02-26T00:07:57;6.90;99.90
25923;DHT22;13725;51.170;4.442;2024-02-26T00:10:23;7.10;99.90
25923;DHT22;13725;51.170;4.442;2024-02-26T00:12:49;7.00;99.90
25923;DHT22;13725;51.170;4.442;2024-02-26T00:15:15;7.00;99.90
25923;DHT22;13725;51.170;4.442;2024-02-26T00:17:41;6.90;99.90
25923;DHT22;13725;51.170;4.442;2024-02-26T00:20:07;6.90;99.90
25923;DHT22;13725;51.170;4.442;2024-02-26T00:22:36;6.80;99.90
25923;DHT22;13725;51.170;4.442;2024-02-26T00:25:02;6.80;99.90
25923;DHT22;13725;51.170;4.442;2024-02-26T00:27:27;6.80;99.90
25923;DHT22;13725;51.170;4.442;2024-02-26T00:29:53;6.80;99.90
25923;DHT22;13725;51.170;4.442;2024-02-26T00:32:19;6.90;99.90
25923;DHT22;13725;51.170;4.442;2024-02-26T00:34:44;6.90;99.90
25923;DHT22;13725;51.170;4.442;2024-02-26T00:37:10;6.80;99.90
25923;DHT22;13725;51.170;4.442;2024-02-26T00:39:36;6.80;99.90
25923;DHT22;13725;51.170;4.442;2024-02-26T00:42:01;6.80;99.90
25923;DHT22;13725;51.170;4.442;2024-02-26T00:44:28;6.80;99.90
25923;DHT22;13725;51.170;4.442;2024-02-26T00:46:54;6.90;99.90
25923;DHT22;13725;51.170;4.442;2024-02-26T00:49:19;6.80;99.90
25923;DHT22;13725;51.170;4.442;2024-02-26T00:51:45;6.90;99.90
25923;DHT22;13725;51.170;4.442;2024-02-26T00:54:11;6.90;99.90
25923;DHT22;13725;51.170;4.442;2024-02-26T00:56:37;6.70;99.90
25923;DHT22;13725;51.170;4.442;2024-02-26T00:59:02;6.70;99.90
25923;DHT22;13725;51.170;4.442;2024-02-26T01:01:28;6.70;99.90
25923;DHT22;13725;51.170;4.442;2024-02-26T01:03:54;6.70;99.90
25923;DHT22;13725;51.170;4.442;2024-02-26T01:06:19;6.70;99.90
25923;DHT22;13725;51.170;4.442;2024-02-26T01:08:45;6.90;99.90
25923;DHT22;13725;51.170;4.442;2024-02-26T01:11:11;6.80;99.90
25923;DHT22;13725;51.170;4.442;2024-02-26T01:13:36;6.60;99.90
25923;DHT22;13725;51.170;4.442;2024-02-26T01:16:02;6.60;99.90
25923;DHT22;13725;51.170;4.442;2024-02-26T01:18:28;6.50;99.90
25923;DHT22;13725;51.170;4.442;2024-02-26T01:20:54;6.50;99.90
25923;DHT22;13725;51.170;4.442;2024-02-26T01:23:20;6.50;99.90
25923;DHT22;13725;51.170;4.442;2024-02-26T01:25:46;6.50;99.90
25923;DHT22;13725;51.170;4.442;2024-02-26T01:28:12;6.50;99.90
25923;DHT22;13725;51.170;4.442;2024-02-26T01:30:37;6.50;99.90
25923;DHT22;13725;51.170;4.442;2024-02-26T01:33:03;6.60;99.90
25923;DHT22;13725;51.170;4.442;2024-02-26T01:35:29;6.50;99.90
25923;DHT22;13725;51.170;4.442;2024-02-26T01:37:55;6.50;99.90
25923;DHT22;13725;51.170;4.442;2024-02-26T01:40:21;6.70;99.90
25923;DHT22;13725;51.170;4.442;2024-02-26T01:42:47;6.50;99.90
25923;DHT22;13725;51.170;4.442;2024-02-26T01:45:17;6.40;99.90
25923;DHT22;13725;51.170;4.442;2024-02-26T01:47:52;6.60;99.90
25923;DHT22;13725;51.170;4.442;2024-02-26T01:50:18;6.60;99.90
25923;DHT22;13725;51.170;4.442;2024-02-26T01:52:46;6.40;99.90
25923;DHT22;13725;51.170;4.442;2024-02-26T01:55:13;6.60;99.90
25923;DHT22;13725;51.170;4.442;2024-02-26T01:57:41;6.40;99.90
25923;DHT22;13725;51.170;4.442;2024-02-26T02:00:08;6.40;99.90
25923;DHT22;13725;51.170;4.442;2024-02-26T02:02:34;6.30;99.90
25923;DHT22;13725;51.170;4.442;2024-02-26T02:05:00;6.50;99.90
25923;DHT22;13725;51.170;4.442;2024-02-26T02:07:26;6.50;99.90
25923;DHT22;13725;51.170;4.442;2024-02-26T02:09:53;6.50;99.90
25923;DHT22;13725;51.170;4.442;2024-02-26T02:12:19;6.40;99.90
25923;DHT22;13725;51.170;4.442;2024-02-26T02:14:45;6.40;99.90
25923;DHT22;13725;51.170;4.442;2024-02-26T02:17:10;6.40;99.90
25923;DHT22;13725;51.170;4.442;2024-02-26T02:19:37;6.30;99.90
25923;DHT22;13725;51.170;4.442;2024-02-26T02:22:02;6.30;99.90
25923;DHT22;13725;51.170;4.442;2024-02-26T02:24:28;6.30;99.90
25923;DHT22;13725;51.170;4.442;2024-02-26T02:26:54;6.40;99.90
25923;DHT22;13725;51.170;4.442;2024-02-26T02:29:20;6.50;99.90
25923;DHT22;13725;51.170;4.442;2024-02-26T02:31:46;6.40;99.90
25923;DHT22;13725;51.170;4.442;2024-02-26T02:34:12;6.50;99.90
25923;DHT22;13725;51.170;4.442;2024-02-26T02:36:54;6.50;99.90
25923;DHT22;13725;51.170;4.442;2024-02-26T02:39:21;6.50;99.90
25923;DHT22;13725;51.170;4.442;2024-02-26T02:41:46;6.50;99.90
25923;DHT22;13725;51.170;4.442;2024-02-26T02:44:12;6.40;99.90
25923;DHT22;13725;51.170;4.442;2024-02-26T02:46:38;6.40;99.90
25923;DHT22;13725;51.170;4.442;2024-02-26T02:49:08;6.40;99.90
25923;DHT22;13725;51.170;4.442;2024-02-26T02:51:34;6.50;99.90
25923;DHT22;13725;51.170;4.442;2024-02-26T02:53:59;6.40;99.90
25923;DHT22;13725;51.170;4.442;2024-02-26T02:56:25;6.30;99.90
25923;DHT22;13725;51.170;4.442;2024-02-26T02:58:51;6.40;99.90
25923;DHT22;13725;51.170;4.442;2024-02-26T03:01:17;6.40;99.90
25923;DHT22;13725;51.170;4.442;2024-02-26T03:03:42;6.40;99.90
25923;DHT22;13725;51.170;4.442;2024-02-26T03:06:08;6.50;99.90
25923;DHT22;13725;51.170;4.442;2024-02-26T03:08:34;6.40;99.90
25923;DHT22;13725;51.170;4.442;2024-02-26T03:11:04;6.30;99.90
25923;DHT22;13725;51.170;4.442;2024-02-26T03:13:29;6.30;99.90
25923;DHT22;13725;51.170;4.442;2024-02-26T03:15:55;6.30;99.90
25923;DHT22;13725;51.170;4.442;2024-02-26T03:18:21;6.20;99.90
25923;DHT22;13725;51.170;4.442;2024-02-26T03:20:47;6.30;99.90
25923;DHT22;13725;51.170;4.442;2024-02-26T03:23:12;6.30;99.90
25923;DHT22;13725;51.170;4.442;2024-02-26T03:25:44;6.40;99.90
25923;DHT22;13725;51.170;4.442;2024-02-26T03:28:11;6.30;99.90
25923;DHT22;13725;51.170;4.442;2024-02-26T03:30:38;6.30;99.90
25923;DHT22;13725;51.170;4.442;2024-02-26T03:33:04;6.20;99.90
25923;DHT22;13725;51.170;4.442;2024-02-26T03:35:29;6.20;99.90
25923;DHT22;13725;51.170;4.442;2024-02-26T03:37:55;6.40;99.90
25923;DHT22;13725;51.170;4.442;2024-02-26T03:40:21;6.30;99.90
25923;DHT22;13725;51.170;4.442;2024-02-26T03:42:47;6.30;99.90
25923;DHT22;13725;51.170;4.442;2024-02-26T03:45:13;6.30;99.90
25923;DHT22;13725;51.170;4.442;2024-02-26T03:47:38;6.40;99.90
25923;DHT22;13725;51.170;4.442;2024-02-26T03:50:07;6.40;99.90
25923;DHT22;13725;51.170;4.442;2024-02-26T03:52:33;6.40;99.90
25923;DHT22;13725;51.170;4.442;2024-02-26T03:54:59;6.50;99.90
25923;DHT22;13725;51.170;4.442;2024-02-26T03:57:25;6.30;99.90
25923;DHT22;13725;51.170;4.442;2024-02-26T03:59:51;6.30;99.90
25923;DHT22;13725;51.170;4.442;2024-02-26T04:02:17;6.30;99.90
25923;DHT22;13725;51.170;4.442;2024-02-26T04:04:45;6.40;99.90
25923;DHT22;13725;51.170;4.442;2024-02-26T04:07:11;6.40;99.90
25923;DHT22;13725;51.170;4.442;2024-02-26T04:09:37;6.30;99.90
25923;DHT22;13725;51.170;4.442;2024-02-26T04:12:03;6.50;99.90
25923;DHT22;13725;51.170;4.442;2024-02-26T04:14:29;6.30;99.90
25923;DHT22;13725;51.170;4.442;2024-02-26T04:16:54;6.40;99.90
25923;DHT22;13725;51.170;4.442;2024-02-26T04:19:20;6.40;99.90
25923;DHT22;13725;51.170;4.442;2024-02-26T04:21:46;6.40;99.90
25923;DHT22;13725;51.170;4.442;2024-02-26T04:24:11;6.40;99.90
25923;DHT22;13725;51.170;4.442;2024-02-26T04:26:37;6.40;99.90
25923;DHT22;13725;51.170;4.442;2024-02-26T04:29:03;6.40;99.90
25923;DHT22;13725;51.170;4.442;2024-02-26T04:31:28;6.60;99.90
25923;DHT22;13725;51.170;4.442;2024-02-26T04:33:55;6.40;99.90
25923;DHT22;13725;51.170;4.442;2024-02-26T04:36:21;6.40;99.90
25923;DHT22;13725;51.170;4.442;2024-02-26T04:38:47;6.50;99.90
25923;DHT22;13725;51.170;4.442;2024-02-26T04:41:13;6.30;99.90
25923;DHT22;13725;51.170;4.442;2024-02-26T04:43:38;6.30;99.90
25923;DHT22;13725;51.170;4.442;2024-02-26T04:46:10;6.20;99.90
25923;DHT22;13725;51.170;4.442;2024-02-26T04:48:36;6.30;99.90
25923;DHT22;13725;51.170;4.442;2024-02-26T04:51:02;6.30;99.90
25923;DHT22;13725;51.170;4.442;2024-02-26T04:53:28;6.40;99.90
25923;DHT22;13725;51.170;4.442;2024-02-26T04:55:54;6.20;99.90
25923;DHT22;13725;51.170;4.442;2024-02-26T04:58:20;6.20;99.90
25923;DHT22;13725;51.170;4.442;2024-02-26T05:00:46;6.10;99.90
25923;DHT22;13725;51.170;4.442;2024-02-26T05:03:12;6.10;99.90
25923;DHT22;13725;51.170;4.442;2024-02-26T05:05:43;6.20;99.90
25923;DHT22;13725;51.170;4.442;2024-02-26T05:08:08;6.20;99.90
25923;DHT22;13725;51.170;4.442;2024-02-26T05:10:34;6.20;99.90
25923;DHT22;13725;51.170;4.442;2024-02-26T05:13:05;6.20;99.90
25923;DHT22;13725;51.170;4.442;2024-02-26T05:15:30;6.30;99.90
25923;DHT22;13725;51.170;4.442;2024-02-26T05:17:56;6.40;99.90
25923;DHT22;13725;51.170;4.442;2024-02-26T05:20:22;6.40;99.90
25923;DHT22;13725;51.170;4.442;2024-02-26T05:22:48;6.50;99.90
25923;DHT22;13725;51.170;4.442;2024-02-26T05:25:17;6.50;99.90
25923;DHT22;13725;51.170;4.442;2024-02-26T05:27:43;6.40;99.90
25923;DHT22;13725;51.170;4.442;2024-02-26T05:30:10;6.40;99.90
25923;DHT22;13725;51.170;4.442;2024-02-26T05:32:36;6.40;99.90
25923;DHT22;13725;51.170;4.442;2024-02-26T05:35:02;6.50;99.90
25923;DHT22;13725;51.170;4.442;2024-02-26T05:37:29;6.30;99.90
25923;DHT22;13725;51.170;4.442;2024-02-26T05:39:55;6.30;99.90
25923;DHT22;13725;51.170;4.442;2024-02-26T05:42:21;6.30;99.90
25923;DHT22;13725;51.170;4.442;2024-02-26T05:44:46;6.30;99.90
25923;DHT22;13725;51.170;4.442;2024-02-26T05:47:12;6.20;99.90
25923;DHT22;13725;51.170;4.442;2024-02-26T05:49:39;6.10;99.90
25923;DHT22;13725;51.170;4.442;2024-02-26T05:52:05;6.20;99.90
25923;DHT22;13725;51.170;4.442;2024-02-26T05:54:31;6.20;99.90
25923;DHT22;13725;51.170;4.442;2024-02-26T05:56:57;6.30;99.90
25923;DHT22;13725;51.170;4.442;2024-02-26T05:59:23;6.20;99.90
25923;DHT22;13725;51.170;4.442;2024-02-26T06:01:49;6.30;99.90
25923;DHT22;13725;51.170;4.442;2024-02-26T06:04:15;6.40;99.90
25923;DHT22;13725;51.170;4.442;2024-02-26T06:06:44;6.40;99.90
25923;DHT22;13725;51.170;4.442;2024-02-26T06:09:11;6.40;99.90
25923;DHT22;13725;51.170;4.442;2024-02-26T06:11:37;6.40;99.90
25923;DHT22;13725;51.170;4.442;2024-02-26T06:14:03;6.30;99.90
25923;DHT22;13725;51.170;4.442;2024-02-26T06:16:29;6.10;99.90
25923;DHT22;13725;51.170;4.442;2024-02-26T06:18:54;6.10;99.90
25923;DHT22;13725;51.170;4.442;2024-02-26T06:21:20;6.10;99.90
25923;DHT22;13725;51.170;4.442;2024-02-26T06:23:46;6.30;99.90
25923;DHT22;13725;51.170;4.442;2024-02-26T06:26:12;6.30;99.90
25923;DHT22;13725;51.170;4.442;2024-02-26T06:28:37;6.10;99.90
25923;DHT22;13725;51.170;4.442;2024-02-26T06:31:06;6.10;99.90
25923;DHT22;13725;51.170;4.442;2024-02-26T06:33:32;5.90;99.90
25923;DHT22;13725;51.170;4.442;2024-02-26T06:35:58;6.10;99.90
25923;DHT22;13725;51.170;4.442;2024-02-26T06:38:24;6.00;99.90
25923;DHT22;13725;51.170;4.442;2024-02-26T06:40:49;5.90;99.90
25923;DHT22;13725;51.170;4.442;2024-02-26T06:43:15;6.10;99.90
25923;DHT22;13725;51.170;4.442;2024-02-26T06:45:41;6.00;99.90
25923;DHT22;13725;51.170;4.442;2024-02-26T06:48:07;6.10;99.90
25923;DHT22;13725;51.170;4.442;2024-02-26T06:50:32;6.00;99.90
25923;DHT22;13725;51.170;4.442;2024-02-26T06:52:58;6.10;99.90
25923;DHT22;13725;51.170;4.442;2024-02-26T06:55:24;6.10;99.90
25923;DHT22;13725;51.170;4.442;2024-02-26T06:57:49;6.00;99.90
25923;DHT22;13725;51.170;4.442;2024-02-26T07:00:15;6.10;99.90
25923;DHT22;13725;51.170;4.442;2024-02-26T07:02:42;6.10;99.90
25923;DHT22;13725;51.170;4.442;2024-02-26T07:05:08;6.00;99.90
25923;DHT22;13725;51.170;4.442;2024-02-26T07:07:34;6.10;99.90
25923;DHT22;13725;51.170;4.442;2024-02-26T07:10:00;6.10;99.90
25923;DHT22;13725;51.170;4.442;2024-02-26T07:12:29;6.00;99.90
25923;DHT22;13725;51.170;4.442;2024-02-26T07:14:55;6.00;99.90
25923;DHT22;13725;51.170;4.442;2024-02-26T07:17:21;5.90;99.90
25923;DHT22;13725;51.170;4.442;2024-02-26T07:19:46;5.90;99.90
25923;DHT22;13725;51.170;4.442;2024-02-26T07:22:12;5.90;99.90
25923;DHT22;13725;51.170;4.442;2024-02-26T07:24:37;5.90;99.90
25923;DHT22;13725;51.170;4.442;2024-02-26T07:27:03;5.90;99.90
25923;DHT22;13725;51.170;4.442;2024-02-26T07:29:29;6.00;99.90
25923;DHT22;13725;51.170;4.442;2024-02-26T07:31:55;6.20;99.90
25923;DHT22;13725;51.170;4.442;2024-02-26T07:34:21;6.20;99.90
25923;DHT22;13725;51.170;4.442;2024-02-26T07:36:53;6.00;99.90
25923;DHT22;13725;51.170;4.442;2024-02-26T07:39:19;6.00;99.90
25923;DHT22;13725;51.170;4.442;2024-02-26T07:41:45;6.10;99.90
25923;DHT22;13725;51.170;4.442;2024-02-26T07:44:15;6.00;99.90
25923;DHT22;13725;51.170;4.442;2024-02-26T07:46:41;6.10;99.90
25923;DHT22;13725;51.170;4.442;2024-02-26T07:49:06;6.20;99.90
25923;DHT22;13725;51.170;4.442;2024-02-26T07:51:33;6.10;99.90
25923;DHT22;13725;51.170;4.442;2024-02-26T07:54:00;6.20;99.90
25923;DHT22;13725;51.170;4.442;2024-02-26T07:56:27;6.30;99.90
25923;DHT22;13725;51.170;4.442;2024-02-26T07:58:52;6.10;99.90
25923;DHT22;13725;51.170;4.442;2024-02-26T08:01:18;6.10;99.90
25923;DHT22;13725;51.170;4.442;2024-02-26T08:03:44;6.10;99.90
25923;DHT22;13725;51.170;4.442;2024-02-26T08:06:09;6.20;99.90
25923;DHT22;13725;51.170;4.442;2024-02-26T08:08:35;6.00;99.90
25923;DHT22;13725;51.170;4.442;2024-02-26T08:11:01;6.00;99.90
25923;DHT22;13725;51.170;4.442;2024-02-26T08:13:26;6.10;99.90
25923;DHT22;13725;51.170;4.442;2024-02-26T08:15:52;6.20;99.90
25923;DHT22;13725;51.170;4.442;2024-02-26T08:18:18;6.10;99.90
25923;DHT22;13725;51.170;4.442;2024-02-26T08:20:44;6.20;99.90
25923;DHT22;13725;51.170;4.442;2024-02-26T08:23:10;6.10;99.90
25923;DHT22;13725;51.170;4.442;2024-02-26T08:25:36;6.30;99.90
25923;DHT22;13725;51.170;4.442;2024-02-26T08:28:02;6.10;99.90
25923;DHT22;13725;51.170;4.442;2024-02-26T08:30:28;6.10;99.90
25923;DHT22;13725;51.170;4.442;2024-02-26T08:32:54;6.00;99.90
25923;DHT22;13725;51.170;4.442;2024-02-26T08:35:20;6.00;99.90
25923;DHT22;13725;51.170;4.442;2024-02-26T08:37:46;6.20;99.90
25923;DHT22;13725;51.170;4.442;2024-02-26T08:40:13;6.20;99.90
25923;DHT22;13725;51.170;4.442;2024-02-26T08:42:39;6.20;99.90
25923;DHT22;13725;51.170;4.442;2024-02-26T08:45:05;6.30;99.90
25923;DHT22;13725;51.170;4.442;2024-02-26T08:47:32;6.20;99.90
25923;DHT22;13725;51.170;4.442;2024-02-26T08:49:58;6.20;99.90
25923;DHT22;13725;51.170;4.442;2024-02-26T08:52:23;6.20;99.90
25923;DHT22;13725;51.170;4.442;2024-02-26T08:54:50;6.20;99.90
25923;DHT22;13725;51.170;4.442;2024-02-26T08:57:16;6.20;99.90
25923;DHT22;13725;51.170;4.442;2024-02-26T08:59:50;6.20;99.90
25923;DHT22;13725;51.170;4.442;2024-02-26T09:02:16;6.20;99.90
25923;DHT22;13725;51.170;4.442;2024-02-26T09:04:42;6.20;99.90
25923;DHT22;13725;51.170;4.442;2024-02-26T09:07:10;6.20;99.90
25923;DHT22;13725;51.170;4.442;2024-02-26T09:09:36;6.40;99.90
25923;DHT22;13725;51.170;4.442;2024-02-26T09:12:03;6.30;99.90
25923;DHT22;13725;51.170;4.442;2024-02-26T09:17:19;6.10;99.90
25923;DHT22;13725;51.170;4.442;2024-02-26T09:19:45;6.10;99.90
25923;DHT22;13725;51.170;4.442;2024-02-26T09:22:11;6.10;99.90
25923;DHT22;13725;51.170;4.442;2024-02-26T09:24:36;6.10;99.90
25923;DHT22;13725;51.170;4.442;2024-02-26T09:27:02;6.10;99.90
25923;DHT22;13725;51.170;4.442;2024-02-26T09:29:28;6.20;99.90
25923;DHT22;13725;51.170;4.442;2024-02-26T09:31:54;6.50;99.90
25923;DHT22;13725;51.170;4.442;2024-02-26T09:34:20;6.40;99.90
25923;DHT22;13725;51.170;4.442;2024-02-26T09:36:45;6.40;99.90
25923;DHT22;13725;51.170;4.442;2024-02-26T09:39:11;6.60;99.90
25923;DHT22;13725;51.170;4.442;2024-02-26T09:41:38;6.40;99.90
25923;DHT22;13725;51.170;4.442;2024-02-26T09:44:04;6.30;99.90
25923;DHT22;13725;51.170;4.442;2024-02-26T09:46:30;6.50;99.90
25923;DHT22;13725;51.170;4.442;2024-02-26T09:48:57;6.30;99.90
25923;DHT22;13725;51.170;4.442;2024-02-26T09:51:26;6.40;99.90
25923;DHT22;13725;51.170;4.442;2024-02-26T09:53:52;6.40;99.90
25923;DHT22;13725;51.170;4.442;2024-02-26T09:56:19;6.30;99.90
25923;DHT22;13725;51.170;4.442;2024-02-26T09:58:45;6.60;99.90
25923;DHT22;13725;51.170;4.442;2024-02-26T10:01:18;6.50;99.90
25923;DHT22;13725;51.170;4.442;2024-02-26T10:03:44;6.50;99.90
25923;DHT22;13725;51.170;4.442;2024-02-26T10:06:12;6.50;99.90
25923;DHT22;13725;51.170;4.442;2024-02-26T10:08:39;6.40;99.90
25923;DHT22;13725;51.170;4.442;2024-02-26T10:11:06;6.50;99.90
25923;DHT22;13725;51.170;4.442;2024-02-26T10:13:35;6.50;99.90
25923;DHT22;13725;51.170;4.442;2024-02-26T10:16:01;6.30;99.90
25923;DHT22;13725;51.170;4.442;2024-02-26T10:18:51;6.40;99.90
25923;DHT22;13725;51.170;4.442;2024-02-26T10:21:18;6.30;99.90
25923;DHT22;13725;51.170;4.442;2024-02-26T10:23:44;6.30;99.90
25923;DHT22;13725;51.170;4.442;2024-02-26T10:26:12;6.20;99.90
25923;DHT22;13725;51.170;4.442;2024-02-26T10:28:39;6.40;99.90
25923;DHT22;13725;51.170;4.442;2024-02-26T10:31:06;6.50;99.90
25923;DHT22;13725;51.170;4.442;2024-02-26T10:33:35;6.50;99.90
25923;DHT22;13725;51.170;4.442;2024-02-26T10:36:05;6.30;99.90
25923;DHT22;13725;51.170;4.442;2024-02-26T10:38:35;6.40;99.90
25923;DHT22;13725;51.170;4.442;2024-02-26T10:41:08;6.40;99.90
25923;DHT22;13725;51.170;4.442;2024-02-26T10:43:38;6.50;99.90
25923;DHT22;13725;51.170;4.442;2024-02-26T10:46:03;6.50;99.90
25923;DHT22;13725;51.170;4.442;2024-02-26T10:48:30;6.60;99.90
25923;DHT22;13725;51.170;4.442;2024-02-26T10:50:56;6.20;99.90
25923;DHT22;13725;51.170;4.442;2024-02-26T10:53:24;6.20;99.90
25923;DHT22;13725;51.170;4.442;2024-02-26T10:56:04;6.20;99.90
25923;DHT22;13725;51.170;4.442;2024-02-26T10:58:33;6.20;99.90
25923;DHT22;13725;51.170;4.442;2024-02-26T11:01:00;6.30;99.90
25923;DHT22;13725;51.170;4.442;2024-02-26T11:03:26;6.30;99.90
25923;DHT22;13725;51.170;4.442;2024-02-26T11:05:52;6.40;99.90
25923;DHT22;13725;51.170;4.442;2024-02-26T11:08:22;6.40;99.90
25923;DHT22;13725;51.170;4.442;2024-02-26T11:10:52;6.50;99.90
25923;DHT22;13725;51.170;4.442;2024-02-26T11:13:19;6.60;99.90
25923;DHT22;13725;51.170;4.442;2024-02-26T11:15:48;6.50;99.90
25923;DHT22;13725;51.170;4.442;2024-02-26T11:18:16;6.60;99.90
25923;DHT22;13725;51.170;4.442;2024-02-26T11:20:44;6.70;99.90
25923;DHT22;13725;51.170;4.442;2024-02-26T11:23:11;6.80;99.90
25923;DHT22;13725;51.170;4.442;2024-02-26T11:25:37;6.60;99.90
25923;DHT22;13725;51.170;4.442;2024-02-26T11:28:08;6.60;99.90
25923;DHT22;13725;51.170;4.442;2024-02-26T11:30:37;6.60;99.90
25923;DHT22;13725;51.170;4.442;2024-02-26T11:33:07;6.60;99.90
25923;DHT22;13725;51.170;4.442;2024-02-26T11:35:37;6.40;99.90
25923;DHT22;13725;51.170;4.442;2024-02-26T11:38:03;6.60;99.90
25923;DHT22;13725;51.170;4.442;2024-02-26T11:40:31;6.40;99.90
25923;DHT22;13725;51.170;4.442;2024-02-26T11:42:58;6.50;99.90
25923;DHT22;13725;51.170;4.442;2024-02-26T11:48:28;6.30;99.90
25923;DHT22;13725;51.170;4.442;2024-02-26T11:50:55;6.30;99.90
25923;DHT22;13725;51.170;4.442;2024-02-26T11:55:48;6.30;99.90
25923;DHT22;13725;51.170;4.442;2024-02-26T11:58:14;6.20;99.90
25923;DHT22;13725;51.170;4.442;2024-02-26T12:00:41;6.20;99.90
25923;DHT22;13725;51.170;4.442;2024-02-26T12:03:07;6.20;99.90
25923;DHT22;13725;51.170;4.442;2024-02-26T12:05:34;6.20;99.90
25923;DHT22;13725;51.170;4.442;2024-02-26T12:08:06;6.10;99.90
25923;DHT22;13725;51.170;4.442;2024-02-26T12:10:36;6.10;99.90
25923;DHT22;13725;51.170;4.442;2024-02-26T12:13:09;6.20;99.90
25923;DHT22;13725;51.170;4.442;2024-02-26T12:15:43;6.20;99.90
25923;DHT22;13725;51.170;4.442;2024-02-26T12:18:10;6.10;99.90
25923;DHT22;13725;51.170;4.442;2024-02-26T12:20:37;6.00;99.90
25923;DHT22;13725;51.170;4.442;2024-02-26T12:23:03;6.00;99.90
25923;DHT22;13725;51.170;4.442;2024-02-26T12:25:30;6.10;99.90
25923;DHT22;13725;51.170;4.442;2024-02-26T12:27:57;6.10;99.90
25923;DHT22;13725;51.170;4.442;2024-02-26T12:30:25;6.10;99.90
25923;DHT22;13725;51.170;4.442;2024-02-26T12:32:53;6.20;99.90
25923;DHT22;13725;51.170;4.442;2024-02-26T12:35:24;6.10;99.90
25923;DHT22;13725;51.170;4.442;2024-02-26T12:37:52;6.20;99.90
25923;DHT22;13725;51.170;4.442;2024-02-26T12:40:19;6.40;99.90
25923;DHT22;13725;51.170;4.442;2024-02-26T12:42:45;6.30;99.90
25923;DHT22;13725;51.170;4.442;2024-02-26T12:45:12;6.40;99.90
25923;DHT22;13725;51.170;4.442;2024-02-26T12:47:44;6.50;99.90
25923;DHT22;13725;51.170;4.442;2024-02-26T12:50:15;6.40;99.90
25923;DHT22;13725;51.170;4.442;2024-02-26T12:52:45;6.30;99.90
25923;DHT22;13725;51.170;4.442;2024-02-26T12:55:15;6.20;99.90
25923;DHT22;13725;51.170;4.442;2024-02-26T12:57:42;6.40;99.90
25923;DHT22;13725;51.170;4.442;2024-02-26T13:00:15;6.10;99.90
25923;DHT22;13725;51.170;4.442;2024-02-26T13:02:42;6.10;99.90
25923;DHT22;13725;51.170;4.442;2024-02-26T13:05:11;6.20;99.90
25923;DHT22;13725;51.170;4.442;2024-02-26T13:07:43;6.20;99.90
25923;DHT22;13725;51.170;4.442;2024-02-26T13:10:10;6.20;99.90
25923;DHT22;13725;51.170;4.442;2024-02-26T13:12:49;6.20;99.90
25923;DHT22;13725;51.170;4.442;2024-02-26T13:15:19;6.50;99.90
25923;DHT22;13725;51.170;4.442;2024-02-26T13:17:46;6.30;99.90
25923;DHT22;13725;51.170;4.442;2024-02-26T13:20:13;6.30;99.90
25923;DHT22;13725;51.170;4.442;2024-02-26T13:22:40;6.50;99.90
25923;DHT22;13725;51.170;4.442;2024-02-26T13:25:06;6.40;99.90
25923;DHT22;13725;51.170;4.442;2024-02-26T13:27:33;6.30;99.90
25923;DHT22;13725;51.170;4.442;2024-02-26T13:30:12;6.40;99.90
25923;DHT22;13725;51.170;4.442;2024-02-26T13:32:39;6.30;99.90
25923;DHT22;13725;51.170;4.442;2024-02-26T13:35:06;6.20;99.90
25923;DHT22;13725;51.170;4.442;2024-02-26T13:37:33;6.20;99.90
25923;DHT22;13725;51.170;4.442;2024-02-26T13:39:59;6.30;99.90
25923;DHT22;13725;51.170;4.442;2024-02-26T13:42:25;6.20;99.90
25923;DHT22;13725;51.170;4.442;2024-02-26T13:44:51;6.20;99.90
25923;DHT22;13725;51.170;4.442;2024-02-26T13:47:17;6.30;99.90
25923;DHT22;13725;51.170;4.442;2024-02-26T13:49:43;6.10;99.90
25923;DHT22;13725;51.170;4.442;2024-02-26T13:52:09;6.20;99.90
25923;DHT22;13725;51.170;4.442;2024-02-26T13:54:35;6.10;99.90
25923;DHT22;13725;51.170;4.442;2024-02-26T13:57:01;6.10;99.90
25923;DHT22;13725;51.170;4.442;2024-02-26T13:59:26;6.10;99.90
25923;DHT22;13725;51.170;4.442;2024-02-26T14:01:52;6.00;99.90
25923;DHT22;13725;51.170;4.442;2024-02-26T14:04:20;6.10;99.90
25923;DHT22;13725;51.170;4.442;2024-02-26T14:06:46;6.20;99.90
25923;DHT22;13725;51.170;4.442;2024-02-26T14:09:12;6.20;99.90
25923;DHT22;13725;51.170;4.442;2024-02-26T14:11:47;6.20;99.90
25923;DHT22;13725;51.170;4.442;2024-02-26T14:14:13;6.20;99.90
25923;DHT22;13725;51.170;4.442;2024-02-26T14:16:39;6.30;99.90
25923;DHT22;13725;51.170;4.442;2024-02-26T14:19:04;6.50;99.90
25923;DHT22;13725;51.170;4.442;2024-02-26T14:21:30;6.40;99.90
25923;DHT22;13725;51.170;4.442;2024-02-26T14:23:56;6.30;99.90
25923;DHT22;13725;51.170;4.442;2024-02-26T14:26:25;6.30;99.90
25923;DHT22;13725;51.170;4.442;2024-02-26T14:28:51;6.40;99.90
25923;DHT22;13725;51.170;4.442;2024-02-26T14:31:19;6.40;99.90
25923;DHT22;13725;51.170;4.442;2024-02-26T14:33:45;6.50;99.90
25923;DHT22;13725;51.170;4.442;2024-02-26T14:36:11;6.70;99.90
25923;DHT22;13725;51.170;4.442;2024-02-26T14:38:37;6.60;99.90
25923;DHT22;13725;51.170;4.442;2024-02-26T14:41:05;6.60;99.90
25923;DHT22;13725;51.170;4.442;2024-02-26T14:43:31;6.60;99.90
25923;DHT22;13725;51.170;4.442;2024-02-26T14:45:58;6.70;99.90
25923;DHT22;13725;51.170;4.442;2024-02-26T14:48:24;6.50;99.90
25923;DHT22;13725;51.170;4.442;2024-02-26T14:50:50;6.50;99.90
25923;DHT22;13725;51.170;4.442;2024-02-26T14:53:17;6.50;99.90
25923;DHT22;13725;51.170;4.442;2024-02-26T14:55:42;6.60;99.90
25923;DHT22;13725;51.170;4.442;2024-02-26T14:58:08;6.50;99.90
25923;DHT22;13725;51.170;4.442;2024-02-26T15:00:38;6.50;99.90
25923;DHT22;13725;51.170;4.442;2024-02-26T15:03:04;6.50;99.90
25923;DHT22;13725;51.170;4.442;2024-02-26T15:05:29;6.50;99.90
25923;DHT22;13725;51.170;4.442;2024-02-26T15:07:55;6.70;99.90
25923;DHT22;13725;51.170;4.442;2024-02-26T15:10:21;6.50;99.90
25923;DHT22;13725;51.170;4.442;2024-02-26T15:12:46;6.50;99.90
25923;DHT22;13725;51.170;4.442;2024-02-26T15:15:12;6.50;99.90
25923;DHT22;13725;51.170;4.442;2024-02-26T15:17:38;6.50;99.90
25923;DHT22;13725;51.170;4.442;2024-02-26T15:20:04;6.60;99.90
25923;DHT22;13725;51.170;4.442;2024-02-26T15:22:33;6.60;99.90
25923;DHT22;13725;51.170;4.442;2024-02-26T15:24:59;6.60;99.90
25923;DHT22;13725;51.170;4.442;2024-02-26T15:27:24;6.60;99.90
25923;DHT22;13725;51.170;4.442;2024-02-26T15:29:50;6.60;99.90
25923;DHT22;13725;51.170;4.442;2024-02-26T15:32:23;6.60;99.90
25923;DHT22;13725;51.170;4.442;2024-02-26T15:34:50;6.60;99.90
25923;DHT22;13725;51.170;4.442;2024-02-26T15:37:17;6.60;99.90
25923;DHT22;13725;51.170;4.442;2024-02-26T15:39:43;6.70;99.90
25923;DHT22;13725;51.170;4.442;2024-02-26T15:42:11;6.70;99.90
25923;DHT22;13725;51.170;4.442;2024-02-26T15:44:38;6.60;99.90
25923;DHT22;13725;51.170;4.442;2024-02-26T15:47:04;6.60;99.90
25923;DHT22;13725;51.170;4.442;2024-02-26T15:49:31;6.60;99.90